createdAt,value
2022-11-24T00:00:51.858Z,4.82
2022-11-24T00:03:58.034Z,5.18
2022-11-24T00:07:00.757Z,4.22
2022-11-24T00:10:04.353Z,4.78
2022-11-24T00:13:06.930Z,4.83
2022-11-24T00:16:18.697Z,4.32
2022-11-24T00:19:21.591Z,4.35
2022-11-24T00:22:24.749Z,4.57
2022-11-24T00:25:27.325Z,4.93
2022-11-24T00:28:30.343Z,5.10
2022-11-24T00:31:35.355Z,5.20
2022-11-24T00:34:38.649Z,4.20
2022-11-24T00:37:41.271Z,3.92
2022-11-24T00:40:45.570Z,4.00
2022-11-24T00:43:48.446Z,4.27
2022-11-24T00:46:51.402Z,4.62
2022-11-24T00:49:54.179Z,4.40
2022-11-24T00:52:56.969Z,4.65
2022-11-24T00:55:59.552Z,4.85
2022-11-24T00:59:02.454Z,5.37
2022-11-24T01:02:05.070Z,5.22
2022-11-24T01:05:08.630Z,5.05
2022-11-24T01:08:11.947Z,5.65
2022-11-24T01:11:23.547Z,6.37
2022-11-24T01:14:26.411Z,6.03
2022-11-24T01:17:29.472Z,6.05
2022-11-24T01:20:32.596Z,6.75
2022-11-24T01:23:35.849Z,7.53
2022-11-24T01:26:38.917Z,7.60
2022-11-24T01:29:41.761Z,7.53
2022-11-24T01:32:44.354Z,8.40
2022-11-24T01:35:47.222Z,8.40
2022-11-24T01:38:50.332Z,8.68
2022-11-24T01:41:53.529Z,8.68
2022-11-24T01:45:31.688Z,7.80
2022-11-24T01:48:40.704Z,8.00
2022-11-24T01:51:47.623Z,8.80
2022-11-24T01:54:55.120Z,9.32
2022-11-24T01:58:07.282Z,8.27
2022-11-24T02:01:10.243Z,7.40
2022-11-24T02:04:15.801Z,8.35
2022-11-24T02:07:18.990Z,8.30
2022-11-24T02:10:22.005Z,8.40
2022-11-24T02:13:25.133Z,9.10
2022-11-24T02:16:27.713Z,9.77
2022-11-24T02:19:39.619Z,9.23
2022-11-24T02:23:09.773Z,8.40
2022-11-24T02:26:16.070Z,9.00
2022-11-24T02:29:20.509Z,9.73
2022-11-24T02:32:23.421Z,8.23
2022-11-24T02:35:27.338Z,9.40
2022-11-24T02:38:31.990Z,8.95
2022-11-24T02:41:34.709Z,7.78
2022-11-24T02:44:41.076Z,7.95
2022-11-24T02:47:43.697Z,9.17
2022-11-24T02:50:46.649Z,9.07
2022-11-24T02:53:49.441Z,9.10
2022-11-24T02:56:52.540Z,7.53
2022-11-24T02:59:55.053Z,9.02
2022-11-24T03:02:58.242Z,8.10
2022-11-24T03:06:01.193Z,8.05
2022-11-24T03:09:04.341Z,8.15
2022-11-24T03:12:07.129Z,7.55
2022-11-24T03:15:10.682Z,7.80
2022-11-24T03:18:13.234Z,8.43
2022-11-24T03:21:16.294Z,8.95
2022-11-24T03:24:18.849Z,7.47
2022-11-24T03:27:21.759Z,8.07
2022-11-24T03:30:24.279Z,8.68
2022-11-24T03:33:27.135Z,8.17
2022-11-24T03:36:29.680Z,8.20
2022-11-24T03:39:32.624Z,8.68
2022-11-24T03:42:35.248Z,8.82
2022-11-24T03:45:46.153Z,8.73
2022-11-24T03:48:49.290Z,9.63
2022-11-24T03:51:52.033Z,10.20
2022-11-24T03:54:54.615Z,10.65
2022-11-24T03:57:57.544Z,10.73
2022-11-24T04:01:00.095Z,10.10
2022-11-24T04:04:03.281Z,11.00
2022-11-24T04:07:05.847Z,11.07
2022-11-24T04:10:09.084Z,11.50
2022-11-24T04:13:14.427Z,12.20
2022-11-24T04:16:17.393Z,11.93
2022-11-24T04:19:19.973Z,14.27
2022-11-24T04:22:23.101Z,14.25
2022-11-24T04:25:25.631Z,12.55
2022-11-24T04:28:28.939Z,14.13
2022-11-24T04:31:31.858Z,15.15
2022-11-24T04:34:35.847Z,15.00
2022-11-24T04:37:38.705Z,15.38
2022-11-24T04:40:41.612Z,15.40
2022-11-24T04:43:44.404Z,15.77
2022-11-24T04:46:47.461Z,14.80
2022-11-24T04:49:50.520Z,16.87
2022-11-24T04:52:53.358Z,16.35
2022-11-24T04:55:55.876Z,15.98
2022-11-24T04:59:01.620Z,17.23
2022-11-24T05:02:09.165Z,16.30
2022-11-24T05:05:12.109Z,17.07
2022-11-24T05:08:14.705Z,16.40
2022-11-24T05:11:18.116Z,16.58
2022-11-24T05:14:20.656Z,16.12
2022-11-24T05:17:23.542Z,17.45
2022-11-24T05:20:26.314Z,17.90
2022-11-24T05:23:29.308Z,18.15
2022-11-24T05:26:31.793Z,19.08
2022-11-24T05:29:34.645Z,18.10
2022-11-24T05:32:37.224Z,18.55
2022-11-24T05:35:40.470Z,18.70
2022-11-24T05:38:43.211Z,17.85
2022-11-24T05:41:46.404Z,18.42
2022-11-24T05:44:48.936Z,19.70
2022-11-24T05:47:51.788Z,19.83
2022-11-24T05:50:55.809Z,18.63
2022-11-24T05:53:58.903Z,19.23
2022-11-24T05:57:01.407Z,19.95
2022-11-24T06:00:06.937Z,20.30
2022-11-24T06:03:14.783Z,20.23
2022-11-24T06:06:17.755Z,20.40
2022-11-24T06:09:20.418Z,20.65
2022-11-24T06:12:23.342Z,18.83
2022-11-24T06:15:25.979Z,19.85
2022-11-24T06:18:28.714Z,19.52
2022-11-24T06:21:31.900Z,20.17
2022-11-24T06:24:35.000Z,19.70
2022-11-24T06:27:37.787Z,19.90
2022-11-24T06:30:40.783Z,19.33
2022-11-24T06:33:43.444Z,18.92
2022-11-24T06:36:47.035Z,19.50
2022-11-24T06:39:49.633Z,20.75
2022-11-24T06:42:52.722Z,19.98
2022-11-24T06:45:55.978Z,18.87
2022-11-24T06:49:00.020Z,19.23
2022-11-24T06:52:02.747Z,18.07
2022-11-24T06:55:06.264Z,16.98
2022-11-24T06:58:09.077Z,19.00
2022-11-24T07:01:16.978Z,17.62
2022-11-24T07:04:20.132Z,17.02
2022-11-24T07:07:23.098Z,15.93
2022-11-24T07:10:25.971Z,16.40
2022-11-24T07:13:28.987Z,16.00
2022-11-24T07:16:32.092Z,16.77
2022-11-24T07:19:35.009Z,15.77
2022-11-24T07:22:37.651Z,15.17
2022-11-24T07:25:40.782Z,16.48
2022-11-24T07:28:43.403Z,15.02
2022-11-24T07:31:46.425Z,15.18
2022-11-24T07:34:49.021Z,14.87
2022-11-24T07:37:57.478Z,14.40
2022-11-24T07:41:04.876Z,14.35
2022-11-24T07:44:07.825Z,13.55
2022-11-24T07:47:10.475Z,15.32
2022-11-24T07:50:13.703Z,14.48
2022-11-24T07:53:16.747Z,14.10
2022-11-24T07:56:19.709Z,13.65
2022-11-24T07:59:22.305Z,14.38
2022-11-24T08:02:25.485Z,14.38
2022-11-24T08:05:28.379Z,14.63
2022-11-24T08:08:33.437Z,13.00
2022-11-24T08:11:36.808Z,14.15
2022-11-24T08:14:39.401Z,12.73
2022-11-24T08:17:42.205Z,13.02
2022-11-24T08:20:44.794Z,12.75
2022-11-24T08:23:47.741Z,13.53
2022-11-24T08:26:50.260Z,12.07
2022-11-24T08:29:53.369Z,10.13
2022-11-24T08:32:56.035Z,10.85
2022-11-24T08:36:10.046Z,11.10
2022-11-24T08:39:12.796Z,10.20
2022-11-24T08:42:16.093Z,11.55
2022-11-24T08:45:21.393Z,10.80
2022-11-24T08:48:25.478Z,11.73
2022-11-24T08:51:29.047Z,10.35
2022-11-24T08:54:32.798Z,11.63
2022-11-24T08:57:35.773Z,11.23
2022-11-24T09:00:40.809Z,10.30
2022-11-24T09:03:49.963Z,12.57
2022-11-24T09:06:53.056Z,11.98
2022-11-24T09:09:55.714Z,11.33
2022-11-24T09:12:58.599Z,14.07
2022-11-24T09:16:06.476Z,11.25
2022-11-24T09:19:10.205Z,10.32
2022-11-24T09:22:12.926Z,12.25
2022-11-24T09:25:15.887Z,10.50
2022-11-24T09:28:18.434Z,10.70
2022-11-24T09:31:24.727Z,10.65
2022-11-24T09:34:27.705Z,10.88
2022-11-24T09:37:33.002Z,10.77
2022-11-24T09:40:35.801Z,11.93
2022-11-24T09:43:40.850Z,11.25
2022-11-24T09:47:02.332Z,12.25
2022-11-24T09:50:14.111Z,11.93
2022-11-24T09:53:32.722Z,12.30
2022-11-24T09:56:38.756Z,12.13
2022-11-24T09:59:42.383Z,12.45
2022-11-24T10:02:48.613Z,12.30
2022-11-24T10:05:52.502Z,13.23
2022-11-24T10:09:32.342Z,13.80
2022-11-24T10:12:53.721Z,15.00
2022-11-24T10:16:41.184Z,11.80
2022-11-24T10:20:14.437Z,13.65
2022-11-24T10:23:42.010Z,13.57
2022-11-24T10:26:52.429Z,14.93
2022-11-24T10:29:55.564Z,15.37
2022-11-24T10:33:01.234Z,13.62
2022-11-24T10:36:08.040Z,15.00
2022-11-24T10:39:20.917Z,14.32
2022-11-24T10:42:33.670Z,13.70
2022-11-24T10:45:37.928Z,15.27
2022-11-24T10:48:57.657Z,14.27
2022-11-24T10:52:12.971Z,13.95
2022-11-24T10:55:15.589Z,14.85
2022-11-24T10:58:31.673Z,12.68
2022-11-24T11:01:38.596Z,13.20
2022-11-24T11:04:41.453Z,14.18
2022-11-24T11:07:44.133Z,12.48
2022-11-24T11:10:49.440Z,12.95
2022-11-24T11:14:06.038Z,13.23
2022-11-24T11:17:33.414Z,14.20
2022-11-24T11:20:36.780Z,12.35
2022-11-24T11:23:40.418Z,14.10
2022-11-24T11:26:43.447Z,13.45
2022-11-24T11:36:56.297Z,14.05
2022-11-24T11:39:59.072Z,12.63
2022-11-24T11:43:26.049Z,13.02
2022-11-24T11:46:30.989Z,14.50
2022-11-24T11:49:35.501Z,13.93
2022-11-24T11:52:44.375Z,14.20
2022-11-24T11:56:03.638Z,12.40
2022-11-24T11:59:26.766Z,12.75
2022-11-24T12:02:29.768Z,12.60
2022-11-24T12:05:51.225Z,13.40
2022-11-24T12:09:20.437Z,13.93
2022-11-24T12:12:29.631Z,14.30
2022-11-24T12:15:46.292Z,14.18
2022-11-24T12:18:59.617Z,13.38
2022-11-24T12:22:02.183Z,14.43
2022-11-24T12:25:23.268Z,12.57
2022-11-24T12:28:50.080Z,13.35
2022-11-24T12:32:31.274Z,12.57
2022-11-24T12:35:43.785Z,11.30
2022-11-24T12:39:06.913Z,11.73
2022-11-24T12:42:31.161Z,11.98
2022-11-24T12:45:46.599Z,11.12
2022-11-24T12:49:15.042Z,12.15
2022-11-24T12:52:25.455Z,10.70
2022-11-24T12:55:29.325Z,11.17
2022-11-24T12:58:51.929Z,10.00
2022-11-24T13:02:15.027Z,11.60
2022-11-24T13:05:37.757Z,10.98
2022-11-24T13:08:41.115Z,10.23
2022-11-24T13:11:51.928Z,9.47
2022-11-24T13:14:54.573Z,11.43
2022-11-24T13:18:08.567Z,10.80
2022-11-24T13:21:51.033Z,10.75
2022-11-24T13:25:21.717Z,10.20
2022-11-24T13:29:06.039Z,10.87
2022-11-24T13:32:16.804Z,9.55
2022-11-24T13:35:19.634Z,9.77
2022-11-24T13:38:43.967Z,10.02
2022-11-24T13:41:49.271Z,10.10
2022-11-24T13:44:54.147Z,10.07
2022-11-24T13:47:56.693Z,9.73
2022-11-24T13:51:01.228Z,9.25
2022-11-24T13:54:04.226Z,9.45
2022-11-24T13:57:35.550Z,8.85
2022-11-24T14:01:05.215Z,9.73
2022-11-24T14:04:30.970Z,9.88
2022-11-24T14:07:36.528Z,9.18
2022-11-24T14:10:41.490Z,9.23
2022-11-24T14:13:45.058Z,10.77
2022-11-24T14:16:47.925Z,10.83
2022-11-24T14:19:57.844Z,10.98
2022-11-24T14:23:00.801Z,11.07
2022-11-24T14:26:03.354Z,11.85
2022-11-24T14:29:11.234Z,13.48
2022-11-24T14:32:16.888Z,12.70
2022-11-24T14:35:22.672Z,11.30
2022-11-24T14:38:25.785Z,11.75
2022-11-24T14:41:28.775Z,10.85
2022-11-24T14:44:34.520Z,10.15
2022-11-24T14:47:45.038Z,9.40
2022-11-24T14:50:47.782Z,10.73
2022-11-24T14:53:54.324Z,9.07
2022-11-24T14:57:04.185Z,9.13
2022-11-24T15:00:17.236Z,10.30
2022-11-24T15:03:19.867Z,10.23
2022-11-24T15:06:22.632Z,9.98
2022-11-24T15:09:30.633Z,8.52
2022-11-24T15:12:41.288Z,10.40
2022-11-24T15:15:49.439Z,11.05
2022-11-24T15:18:58.528Z,10.20
2022-11-24T15:22:01.498Z,10.18
2022-11-24T15:25:31.434Z,9.80
2022-11-24T15:28:33.942Z,9.40
2022-11-24T15:31:37.119Z,9.90
2022-11-24T15:34:39.882Z,10.40
2022-11-24T15:37:42.692Z,10.00
2022-11-24T15:40:47.515Z,10.77
2022-11-24T15:43:50.392Z,10.63
2022-11-24T15:46:55.300Z,11.15
2022-11-24T15:49:58.308Z,10.87
2022-11-24T15:53:01.022Z,11.55
2022-11-24T15:56:06.863Z,11.20
2022-11-24T15:59:19.949Z,11.50
2022-11-24T16:02:24.028Z,11.40
2022-11-24T16:05:26.894Z,10.43
2022-11-24T16:08:29.576Z,10.63
2022-11-24T16:11:32.413Z,11.20
2022-11-24T16:14:35.868Z,11.12
2022-11-24T16:17:39.143Z,10.38
2022-11-24T16:20:41.940Z,10.30
2022-11-24T16:23:45.644Z,10.88
2022-11-24T16:26:48.277Z,10.32
2022-11-24T16:29:51.819Z,10.88
2022-11-24T16:32:54.990Z,11.02
2022-11-24T16:35:57.804Z,11.97
2022-11-24T16:39:00.552Z,11.25
2022-11-24T16:42:04.368Z,9.93
2022-11-24T16:45:07.541Z,10.57
2022-11-24T16:48:10.404Z,12.35
2022-11-24T16:51:13.649Z,10.63
2022-11-24T16:54:16.736Z,9.88
2022-11-24T16:57:19.426Z,10.63
2022-11-24T17:00:22.661Z,10.32
2022-11-24T17:03:25.536Z,10.45
2022-11-24T17:06:28.938Z,8.30
2022-11-24T17:09:33.866Z,8.98
2022-11-24T17:12:41.009Z,9.48
2022-11-24T17:15:48.398Z,9.93
2022-11-24T17:18:54.501Z,10.10
2022-11-24T17:21:57.241Z,9.90
2022-11-24T17:25:00.084Z,9.65
2022-11-24T17:28:02.716Z,8.88
2022-11-24T17:31:07.287Z,10.70
2022-11-24T17:34:10.810Z,9.52
2022-11-24T17:37:13.807Z,8.70
2022-11-24T17:40:34.369Z,9.95
2022-11-24T17:43:37.575Z,10.57
2022-11-24T17:46:40.758Z,10.25
2022-11-24T17:49:43.891Z,10.63
2022-11-24T17:52:47.090Z,11.20
2022-11-24T17:55:50.080Z,11.38
2022-11-24T17:59:00.179Z,9.27
2022-11-24T18:02:03.358Z,10.50
2022-11-24T18:05:06.883Z,10.93
2022-11-24T18:08:09.601Z,10.40
2022-11-24T18:11:23.627Z,10.82
2022-11-24T18:14:28.605Z,10.07
2022-11-24T18:17:31.583Z,10.57
2022-11-24T18:20:34.444Z,11.20
2022-11-24T18:23:37.888Z,12.00
2022-11-24T18:26:42.217Z,10.85
2022-11-24T18:29:46.396Z,10.98
2022-11-24T18:32:49.193Z,9.93
2022-11-24T18:36:00.058Z,10.98
2022-11-24T18:39:07.975Z,10.83
2022-11-24T18:42:11.240Z,11.68
2022-11-24T18:45:14.043Z,10.70
2022-11-24T18:48:17.271Z,11.95
2022-11-24T18:51:19.733Z,10.48
2022-11-24T18:54:22.509Z,11.17
2022-11-24T18:57:25.278Z,11.95
2022-11-24T19:00:28.763Z,12.70
2022-11-24T19:03:31.481Z,17.40
2022-11-24T19:06:36.879Z,14.55
2022-11-24T19:09:39.727Z,16.93
2022-11-24T19:12:44.841Z,19.45
2022-11-24T19:15:48.560Z,16.77
2022-11-24T19:18:54.359Z,12.73
2022-11-24T19:21:57.128Z,16.12
2022-11-24T19:25:00.339Z,11.53
2022-11-24T19:28:03.140Z,13.00
2022-11-24T19:31:08.841Z,14.13
2022-11-24T19:34:11.812Z,12.37
2022-11-24T19:37:15.091Z,14.13
2022-11-24T19:40:18.578Z,16.07
2022-11-24T19:43:21.811Z,18.17
2022-11-24T19:46:27.216Z,19.12
2022-11-24T19:49:32.454Z,16.00
2022-11-24T19:52:35.598Z,13.68
2022-11-24T19:55:38.708Z,13.67
2022-11-24T19:58:42.225Z,13.45
2022-11-24T20:01:45.267Z,13.80
2022-11-24T20:04:48.462Z,13.65
2022-11-24T20:07:51.445Z,14.23
2022-11-24T20:10:55.034Z,13.93
2022-11-24T20:13:57.876Z,14.32
2022-11-24T20:17:01.097Z,13.60
2022-11-24T20:20:04.504Z,14.65
2022-11-24T20:23:07.817Z,13.95
2022-11-24T20:26:16.328Z,14.07
2022-11-24T20:29:20.281Z,14.27
2022-11-24T20:32:23.166Z,11.85
2022-11-24T20:35:26.290Z,13.57
2022-11-24T20:38:29.751Z,13.35
2022-11-24T20:41:34.752Z,12.63
2022-11-24T20:44:37.751Z,12.85
2022-11-24T20:47:40.957Z,11.88
2022-11-24T20:50:48.302Z,12.35
2022-11-24T20:53:56.858Z,10.90
2022-11-24T20:56:59.738Z,12.17
2022-11-24T21:00:03.219Z,11.95
2022-11-24T21:03:07.135Z,11.10
2022-11-24T21:06:10.976Z,10.77
2022-11-24T21:09:13.735Z,13.43
2022-11-24T21:12:17.417Z,12.20
2022-11-24T21:15:20.014Z,11.70
2022-11-24T21:18:23.829Z,11.52
2022-11-24T21:21:33.381Z,12.50
2022-11-24T21:24:36.674Z,11.35
2022-11-24T21:27:39.634Z,12.53
2022-11-24T21:30:42.649Z,12.02
2022-11-24T21:33:50.349Z,13.93
2022-11-24T21:36:53.218Z,11.98
2022-11-24T21:39:55.669Z,11.80
2022-11-24T21:42:59.569Z,13.83
2022-11-24T21:46:03.768Z,14.18
2022-11-24T21:49:06.736Z,13.45
2022-11-24T21:52:09.305Z,12.55
2022-11-24T21:55:12.278Z,12.55
2022-11-24T21:58:15.063Z,13.20
2022-11-24T22:01:19.613Z,13.80
2022-11-24T22:04:22.751Z,13.27
2022-11-24T22:07:25.331Z,12.13
2022-11-24T22:10:29.616Z,12.70
2022-11-24T22:13:32.228Z,12.23
2022-11-24T22:16:35.651Z,13.25
2022-11-24T22:19:38.234Z,13.77
2022-11-24T22:22:41.174Z,12.85
2022-11-24T22:25:43.781Z,12.95
2022-11-24T22:28:49.943Z,12.73
2022-11-24T22:31:54.327Z,12.68
2022-11-24T22:34:57.336Z,12.00
2022-11-24T22:37:59.952Z,13.05
2022-11-24T22:41:25.224Z,12.07
2022-11-24T22:44:28.612Z,11.63
2022-11-24T22:47:31.517Z,13.50
2022-11-24T22:50:36.824Z,13.13
2022-11-24T22:53:40.373Z,12.18
2022-11-24T22:56:43.123Z,13.15
2022-11-24T22:59:46.372Z,12.67
2022-11-24T23:02:48.986Z,12.32
2022-11-24T23:05:51.911Z,12.60
2022-11-24T23:08:55.175Z,13.55
2022-11-24T23:11:58.017Z,12.75
2022-11-24T23:15:00.668Z,13.60
2022-11-24T23:18:03.555Z,12.40
2022-11-24T23:21:11.189Z,13.27
2022-11-24T23:24:14.037Z,12.00
2022-11-24T23:27:16.515Z,13.27
2022-11-24T23:30:19.764Z,12.00
2022-11-24T23:33:22.278Z,12.75
2022-11-24T23:36:25.644Z,12.95
2022-11-24T23:39:28.630Z,11.93
2022-11-24T23:42:31.522Z,11.05
2022-11-24T23:45:34.008Z,11.93
2022-11-24T23:48:37.799Z,12.80
2022-11-24T23:51:42.096Z,11.93
2022-11-24T23:54:45.431Z,11.88
2022-11-24T23:57:47.957Z,12.70
